createdAt,value
2017-05-11T00:00:49.021Z,100031
2017-05-11T00:03:18.713Z,100033
2017-05-11T00:05:47.712Z,100032
2017-05-11T00:08:17.109Z,100029
2017-05-11T00:10:46.074Z,100037
2017-05-11T00:13:15.012Z,100031
2017-05-11T00:15:44.305Z,100027
2017-05-11T00:18:13.277Z,100032
2017-05-11T00:20:42.264Z,100024
2017-05-11T00:23:11.686Z,100033
2017-05-11T00:25:40.725Z,100028
2017-05-11T00:28:09.755Z,100030
2017-05-11T00:30:39.074Z,100021
2017-05-11T00:33:08.069Z,100024
2017-05-11T00:35:37.022Z,100034
2017-05-11T00:38:06.340Z,100033
2017-05-11T00:40:35.269Z,100026
2017-05-11T00:43:04.217Z,100027
2017-05-11T00:45:33.535Z,100020
2017-05-11T00:48:02.482Z,100015
2017-05-11T00:50:31.441Z,100015
2017-05-11T00:53:00.964Z,100009
2017-05-11T00:55:29.930Z,100002
2017-05-11T00:57:58.876Z,100005
2017-05-11T01:00:28.844Z,100008
2017-05-11T01:02:57.816Z,100016
2017-05-11T01:05:26.912Z,100016
2017-05-11T01:07:56.207Z,100009
2017-05-11T01:10:25.192Z,100007
2017-05-11T01:12:54.952Z,100007
2017-05-11T01:15:24.315Z,100003
2017-05-11T01:17:53.261Z,99999
2017-05-11T01:20:22.334Z,99993
2017-05-11T01:22:51.792Z,99998
2017-05-11T01:25:21.507Z,99997
2017-05-11T01:27:51.512Z,99999
2017-05-11T01:30:20.444Z,99993
2017-05-11T01:32:49.384Z,99991
2017-05-11T01:35:18.690Z,99987
2017-05-11T01:37:48.373Z,99979
2017-05-11T01:40:17.349Z,99976
2017-05-11T01:42:46.795Z,99983
2017-05-11T01:45:16.534Z,99971
2017-05-11T01:47:45.458Z,99975
2017-05-11T01:50:14.757Z,99977
2017-05-11T01:52:43.715Z,99971
2017-05-11T01:55:12.655Z,99966
2017-05-11T01:57:41.981Z,99962
2017-05-11T02:00:11.691Z,99960
2017-05-11T02:02:41.687Z,99966
2017-05-11T02:05:10.662Z,99960
2017-05-11T02:07:39.601Z,99956
2017-05-11T02:10:08.926Z,99960
2017-05-11T02:12:37.863Z,99951
2017-05-11T02:15:06.824Z,99954
2017-05-11T02:17:36.064Z,99944
2017-05-11T02:20:05.022Z,99949
2017-05-11T02:22:33.962Z,99937
2017-05-11T02:25:03.286Z,99948
2017-05-11T02:27:32.248Z,99941
2017-05-11T02:30:01.969Z,99940
2017-05-11T02:32:31.333Z,99932
2017-05-11T02:35:00.285Z,99933
2017-05-11T02:37:29.241Z,99928
2017-05-11T02:39:59.366Z,99926
2017-05-11T02:42:28.349Z,99926
2017-05-11T02:44:58.047Z,99927
2017-05-11T02:47:28.175Z,99926
2017-05-11T02:49:57.167Z,99927
2017-05-11T02:52:26.114Z,99930
2017-05-11T02:54:55.472Z,99927
2017-05-11T02:57:24.423Z,99924
2017-05-11T02:59:53.367Z,99931
2017-05-11T03:02:22.752Z,99922
2017-05-11T03:04:51.710Z,99923
2017-05-11T03:07:20.707Z,99918
2017-05-11T03:09:50.142Z,99916
2017-05-11T03:12:19.102Z,99917
2017-05-11T03:14:48.065Z,99916
2017-05-11T03:17:17.452Z,99924
2017-05-11T03:19:46.394Z,99922
2017-05-11T03:22:15.338Z,99932
2017-05-11T03:24:44.829Z,99927
2017-05-11T03:27:13.799Z,99934
2017-05-11T03:29:42.738Z,99929
2017-05-11T03:32:12.059Z,99933
2017-05-11T03:34:41.021Z,99934
2017-05-11T03:37:09.979Z,99924
2017-05-11T03:39:39.406Z,99927
2017-05-11T03:42:08.419Z,99926
2017-05-11T03:44:37.386Z,99921
2017-05-11T03:47:06.733Z,99926
2017-05-11T03:49:35.733Z,99920
2017-05-11T03:52:04.686Z,99919
2017-05-11T03:54:33.993Z,99918
2017-05-11T03:57:02.927Z,99912
2017-05-11T03:59:31.918Z,99922
2017-05-11T04:02:01.287Z,99917
2017-05-11T04:04:30.214Z,99919
2017-05-11T04:06:59.196Z,99928
2017-05-11T04:09:28.499Z,99924
2017-05-11T04:11:57.443Z,99927
2017-05-11T04:14:26.405Z,99929
2017-05-11T04:16:55.808Z,99926
2017-05-11T04:19:24.758Z,99927
2017-05-11T04:21:54.843Z,99930
2017-05-11T04:24:24.122Z,99922
2017-05-11T04:26:53.257Z,99922
2017-05-11T04:29:22.333Z,99925
2017-05-11T04:31:51.558Z,99928
2017-05-11T04:34:20.546Z,99923
2017-05-11T04:36:49.521Z,99922
2017-05-11T04:39:18.881Z,99930
2017-05-11T04:41:47.839Z,99933
2017-05-11T04:44:16.831Z,99926
2017-05-11T04:46:46.131Z,99921
2017-05-11T04:49:15.105Z,99927
2017-05-11T04:51:44.064Z,99928
2017-05-11T04:54:13.354Z,99923
2017-05-11T04:56:42.313Z,99922
2017-05-11T04:59:12.028Z,99920
2017-05-11T05:01:41.314Z,99925
2017-05-11T05:04:10.355Z,99923
2017-05-11T05:06:39.302Z,99921
2017-05-11T05:09:08.820Z,99913
2017-05-11T05:11:37.814Z,99917
2017-05-11T05:14:06.754Z,99915
2017-05-11T05:16:36.071Z,99922
2017-05-11T05:19:05.057Z,99913
2017-05-11T05:21:33.998Z,99920
2017-05-11T05:24:03.297Z,99913
2017-05-11T05:26:32.325Z,99925
2017-05-11T05:29:01.278Z,99922
2017-05-11T05:31:36.565Z,99920
2017-05-11T05:34:05.789Z,99924
2017-05-11T05:36:34.753Z,99910
2017-05-11T05:39:04.105Z,99909
2017-05-11T05:41:33.090Z,99918
2017-05-11T05:44:02.077Z,99912
2017-05-11T05:46:31.431Z,99917
2017-05-11T05:49:00.469Z,99918
2017-05-11T05:51:29.412Z,99914
2017-05-11T05:53:58.743Z,99917
2017-05-11T05:56:27.698Z,99909
2017-05-11T05:58:56.650Z,99914
2017-05-11T06:01:26.035Z,99911
2017-05-11T06:03:55.002Z,99908
2017-05-11T06:06:23.957Z,99904
2017-05-11T06:08:53.315Z,99904
2017-05-11T06:11:22.300Z,99912
2017-05-11T06:13:52.020Z,99915
2017-05-11T06:16:21.536Z,99905
2017-05-11T06:18:50.530Z,99911
2017-05-11T06:21:19.522Z,99911
2017-05-11T06:23:49.022Z,99911
2017-05-11T06:26:17.995Z,99906
2017-05-11T06:28:47.711Z,99902
2017-05-11T06:31:16.966Z,99899
2017-05-11T06:33:46.694Z,99904
2017-05-11T06:36:15.660Z,99906
2017-05-11T06:38:45.008Z,99902
2017-05-11T06:41:14.722Z,99902
2017-05-11T06:43:44.844Z,99904
2017-05-11T06:46:13.814Z,99910
2017-05-11T06:48:42.795Z,99902
2017-05-11T06:51:12.224Z,99903
2017-05-11T06:53:41.915Z,99905
2017-05-11T06:56:10.962Z,99900
2017-05-11T06:58:40.451Z,99905
2017-05-11T07:01:09.407Z,99907
2017-05-11T07:03:38.361Z,99911
2017-05-11T07:06:07.916Z,99895
2017-05-11T07:08:36.878Z,99900
2017-05-11T07:11:06.692Z,99900
2017-05-11T07:13:35.967Z,99887
2017-05-11T07:16:04.935Z,99892
2017-05-11T07:18:33.912Z,99890
2017-05-11T07:21:03.221Z,99897
2017-05-11T07:23:32.210Z,99902
2017-05-11T07:26:01.214Z,99895
2017-05-11T07:28:30.537Z,99901
2017-05-11T07:30:59.493Z,99888
2017-05-11T07:33:28.439Z,99890
2017-05-11T07:35:57.660Z,99885
2017-05-11T07:38:27.375Z,99889
2017-05-11T07:40:57.083Z,99882
2017-05-11T07:43:27.181Z,99881
2017-05-11T07:45:56.141Z,99885
2017-05-11T07:48:25.123Z,99875
2017-05-11T07:50:54.407Z,99876
2017-05-11T07:53:23.435Z,99874
2017-05-11T07:55:52.410Z,99876
2017-05-11T07:58:21.647Z,99873
2017-05-11T08:00:50.604Z,99881
2017-05-11T08:03:19.605Z,99870
2017-05-11T08:05:48.951Z,99867
2017-05-11T08:08:17.910Z,99869
2017-05-11T08:10:46.956Z,99872
2017-05-11T08:13:16.438Z,99873
2017-05-11T08:15:46.158Z,99869
2017-05-11T08:18:15.143Z,99864
2017-05-11T08:20:44.426Z,99866
2017-05-11T08:23:13.383Z,99867
2017-05-11T08:25:42.377Z,99866
2017-05-11T08:28:11.807Z,99868
2017-05-11T08:30:40.807Z,99864
2017-05-11T08:33:10.530Z,99855
2017-05-11T08:35:40.669Z,99851
2017-05-11T08:38:09.603Z,99855
2017-05-11T08:40:38.614Z,99845
2017-05-11T08:43:08.727Z,99850
2017-05-11T08:45:37.704Z,99847
2017-05-11T08:48:06.641Z,99844
2017-05-11T08:50:36.040Z,99836
2017-05-11T08:53:04.988Z,99842
2017-05-11T08:55:34.691Z,99843
2017-05-11T08:58:03.934Z,99836
2017-05-11T09:00:32.883Z,99846
2017-05-11T09:03:01.843Z,99847
2017-05-11T09:05:31.116Z,99843
2017-05-11T09:08:00.104Z,99839
2017-05-11T09:10:29.786Z,99846
2017-05-11T09:12:59.169Z,99844
2017-05-11T09:15:28.136Z,99844
2017-05-11T09:17:57.073Z,99842
2017-05-11T09:20:26.290Z,99837
2017-05-11T09:22:55.993Z,99843
2017-05-11T09:25:25.722Z,99835
2017-05-11T09:27:55.007Z,99844
2017-05-11T09:30:23.943Z,99835
2017-05-11T09:32:52.917Z,99835
2017-05-11T09:35:23.351Z,99834
2017-05-11T09:37:52.297Z,99835
2017-05-11T09:40:21.979Z,99830
2017-05-11T09:42:51.279Z,99821
2017-05-11T09:45:20.230Z,99818
2017-05-11T09:47:49.210Z,99820
2017-05-11T09:50:18.451Z,99803
2017-05-11T09:52:47.450Z,99808
2017-05-11T09:55:16.402Z,99805
2017-05-11T09:57:45.832Z,99797
2017-05-11T10:00:14.812Z,99791
2017-05-11T10:02:43.855Z,99801
2017-05-11T10:05:13.256Z,99798
2017-05-11T10:07:42.970Z,99797
2017-05-11T10:10:11.943Z,99791
2017-05-11T10:12:41.419Z,99796
2017-05-11T10:15:10.368Z,99794
2017-05-11T10:17:39.334Z,99794
2017-05-11T10:20:08.725Z,99780
2017-05-11T10:22:37.750Z,99788
2017-05-11T10:25:07.448Z,99783
2017-05-11T10:27:37.454Z,99784
2017-05-11T10:30:06.385Z,99780
2017-05-11T10:32:35.385Z,99777
2017-05-11T10:35:04.876Z,99777
2017-05-11T10:37:33.823Z,99770
2017-05-11T10:40:02.773Z,99763
2017-05-11T10:42:32.073Z,99766
2017-05-11T10:45:01.037Z,99762
2017-05-11T10:47:30.074Z,99747
2017-05-11T10:49:59.524Z,99753
2017-05-11T10:52:28.492Z,99751
2017-05-11T10:54:58.286Z,99743
2017-05-11T10:57:27.614Z,99743
2017-05-11T10:59:57.343Z,99741
2017-05-11T11:02:26.282Z,99739
2017-05-11T11:04:55.590Z,99737
2017-05-11T11:07:24.665Z,99745
2017-05-11T11:09:53.671Z,99742
2017-05-11T11:12:22.991Z,99735
2017-05-11T11:14:52.793Z,99731
2017-05-11T11:17:21.786Z,99732
2017-05-11T11:19:51.088Z,99739
2017-05-11T11:22:20.076Z,99717
2017-05-11T11:24:49.026Z,99724
2017-05-11T11:27:18.425Z,99719
2017-05-11T11:29:47.380Z,99726
2017-05-11T11:32:17.073Z,99716
2017-05-11T11:34:46.444Z,99725
2017-05-11T11:37:15.425Z,99711
2017-05-11T11:39:44.372Z,99719
2017-05-11T11:42:13.702Z,99705
2017-05-11T11:44:42.705Z,99707
2017-05-11T11:47:11.688Z,99708
2017-05-11T11:49:41.048Z,99700
2017-05-11T11:52:10.043Z,99693
2017-05-11T11:54:39.116Z,99697
2017-05-11T11:57:08.414Z,99696
2017-05-11T11:59:37.397Z,99689
2017-05-11T12:02:06.354Z,99682
2017-05-11T12:04:35.599Z,99690
2017-05-11T12:07:04.775Z,99683
2017-05-11T12:09:33.726Z,99684
2017-05-11T12:12:03.116Z,99686
2017-05-11T12:14:32.819Z,99684
2017-05-11T12:17:01.773Z,99684
2017-05-11T12:19:31.213Z,99686
2017-05-11T12:22:00.211Z,99673
2017-05-11T12:24:29.214Z,99683
2017-05-11T12:26:58.534Z,99680
2017-05-11T12:29:27.567Z,99665
2017-05-11T12:31:56.516Z,99659
2017-05-11T12:34:25.883Z,99664
2017-05-11T12:36:55.587Z,99668
2017-05-11T12:39:24.588Z,99670
2017-05-11T12:41:54.771Z,99665
2017-05-11T12:44:23.723Z,99663
2017-05-11T12:46:52.697Z,99655
2017-05-11T12:49:23.017Z,99657
2017-05-11T12:51:52.740Z,99648
2017-05-11T12:54:21.700Z,99647
2017-05-11T12:56:51.012Z,99643
2017-05-11T12:59:19.988Z,99651
2017-05-11T13:01:48.935Z,99643
2017-05-11T13:04:18.300Z,99637
2017-05-11T13:06:47.452Z,99632
2017-05-11T13:09:16.450Z,99641
2017-05-11T13:11:45.818Z,99630
2017-05-11T13:14:14.809Z,99630
2017-05-11T13:16:43.768Z,99624
2017-05-11T13:19:13.865Z,99623
2017-05-11T13:21:42.866Z,99630
2017-05-11T13:24:11.862Z,99622
2017-05-11T13:26:41.143Z,99630
2017-05-11T13:29:10.124Z,99620
2017-05-11T13:31:39.090Z,99620
2017-05-11T13:34:08.773Z,99617
2017-05-11T13:36:38.453Z,99614
2017-05-11T13:39:07.607Z,99606
2017-05-11T13:41:36.940Z,99605
2017-05-11T13:44:05.916Z,99598
2017-05-11T13:46:34.931Z,99598
2017-05-11T13:49:04.360Z,99591
2017-05-11T13:51:34.090Z,99607
2017-05-11T13:54:03.052Z,99592
2017-05-11T13:56:32.359Z,99596
2017-05-11T13:59:01.309Z,99596
2017-05-11T14:01:30.436Z,99591
2017-05-11T14:04:00.059Z,99582
2017-05-11T14:06:29.033Z,99587
2017-05-11T14:08:58.226Z,99584
2017-05-11T14:11:27.687Z,99574
2017-05-11T14:13:56.656Z,99573
2017-05-11T14:16:25.607Z,99574
2017-05-11T14:18:54.961Z,99574
2017-05-11T14:21:23.938Z,99566
2017-05-11T14:23:52.935Z,99565
2017-05-11T14:26:22.215Z,99563
2017-05-11T14:28:51.635Z,99557
2017-05-11T14:31:20.621Z,99550
2017-05-11T14:33:49.991Z,99557
2017-05-11T14:36:19.706Z,99546
2017-05-11T14:38:48.744Z,99543
2017-05-11T14:41:18.130Z,99536
2017-05-11T14:43:47.169Z,99535
2017-05-11T14:46:16.152Z,99536
2017-05-11T14:48:45.434Z,99530
2017-05-11T14:51:14.403Z,99526
2017-05-11T14:53:43.410Z,99522
2017-05-11T14:56:12.768Z,99532
2017-05-11T14:58:41.828Z,99534
2017-05-11T15:01:10.790Z,99524
2017-05-11T15:03:40.174Z,99528
2017-05-11T15:06:09.178Z,99525
2017-05-11T15:08:38.113Z,99521
2017-05-11T15:11:07.378Z,99520
2017-05-11T15:13:36.472Z,99519
2017-05-11T15:16:05.445Z,99511
2017-05-11T15:18:34.831Z,99519
2017-05-11T15:21:04.596Z,99516
2017-05-11T15:23:33.574Z,99516
2017-05-11T15:26:02.888Z,99509
2017-05-11T15:28:31.862Z,99521
2017-05-11T15:31:00.812Z,99508
2017-05-11T15:33:30.312Z,99515
2017-05-11T15:36:00.030Z,99510
2017-05-11T15:38:29.076Z,99521
2017-05-11T15:40:58.433Z,99510
2017-05-11T15:43:27.559Z,99507
2017-05-11T15:45:56.593Z,99504
2017-05-11T15:48:25.881Z,99517
2017-05-11T15:50:55.619Z,99513
2017-05-11T15:53:24.588Z,99506
2017-05-11T15:55:53.914Z,99514
2017-05-11T15:58:22.864Z,99509
2017-05-11T16:00:51.803Z,99506
2017-05-11T16:03:21.114Z,99502
2017-05-11T16:05:50.337Z,99507
2017-05-11T16:08:19.300Z,99504
2017-05-11T16:10:48.563Z,99503
2017-05-11T16:13:17.545Z,99503
2017-05-11T16:15:46.568Z,99499
2017-05-11T16:18:16.569Z,99496
2017-05-11T16:20:46.269Z,99487
2017-05-11T16:23:15.991Z,99495
2017-05-11T16:25:45.307Z,99489
2017-05-11T16:28:14.282Z,99480
2017-05-11T16:30:43.289Z,99488
2017-05-11T16:33:12.761Z,99480
2017-05-11T16:35:41.739Z,99481
2017-05-11T16:38:10.683Z,99477
2017-05-11T16:40:39.966Z,99471
2017-05-11T16:43:09.658Z,99473
2017-05-11T16:45:38.687Z,99473
2017-05-11T16:48:08.074Z,99470
2017-05-11T16:50:37.744Z,99470
2017-05-11T16:53:06.698Z,99476
2017-05-11T16:55:35.985Z,99468
2017-05-11T16:58:04.935Z,99467
2017-05-11T17:00:34.626Z,99464
2017-05-11T17:03:03.958Z,99467
2017-05-11T17:05:33.683Z,99461
2017-05-11T17:08:02.710Z,99463
2017-05-11T17:10:32.087Z,99458
2017-05-11T17:13:01.312Z,99464
2017-05-11T17:15:30.320Z,99462
2017-05-11T17:17:59.869Z,99455
2017-05-11T17:20:29.568Z,99460
2017-05-11T17:22:59.612Z,99458
2017-05-11T17:25:28.569Z,99454
2017-05-11T17:27:57.952Z,99450
2017-05-11T17:30:27.197Z,99452
2017-05-11T17:32:56.140Z,99445
2017-05-11T17:35:25.178Z,99442
2017-05-11T17:37:54.557Z,99445
2017-05-11T17:40:24.306Z,99442
2017-05-11T17:42:53.309Z,99449
2017-05-11T17:45:22.642Z,99448
2017-05-11T17:47:51.608Z,99450
2017-05-11T17:50:20.586Z,99453
2017-05-11T17:52:49.954Z,99448
2017-05-11T17:55:19.651Z,99459
2017-05-11T17:57:49.660Z,99457
2017-05-11T18:00:18.616Z,99466
2017-05-11T18:02:47.571Z,99466
2017-05-11T18:05:16.830Z,99471
2017-05-11T18:07:46.078Z,99468
2017-05-11T18:10:15.069Z,99465
2017-05-11T18:12:44.534Z,99479
2017-05-11T18:15:13.533Z,99476
2017-05-11T18:17:42.470Z,99474
2017-05-11T18:20:11.862Z,99474
2017-05-11T18:22:40.893Z,99479
2017-05-11T18:25:09.868Z,99476
2017-05-11T18:27:39.196Z,99486
2017-05-11T18:30:08.371Z,99485
2017-05-11T18:32:37.467Z,99482
2017-05-11T18:35:06.833Z,99486
2017-05-11T18:37:35.851Z,99482
2017-05-11T18:40:04.856Z,99477
2017-05-11T18:42:34.115Z,99492
2017-05-11T18:45:03.094Z,99491
2017-05-11T18:47:32.783Z,99495
2017-05-11T18:50:02.088Z,99492
2017-05-11T18:52:31.142Z,99489
2017-05-11T18:55:00.116Z,99497
2017-05-11T18:57:29.475Z,99495
2017-05-11T18:59:59.288Z,99496
2017-05-11T19:02:29.032Z,99499
2017-05-11T19:04:58.332Z,99493
2017-05-11T19:07:27.343Z,99498
2017-05-11T19:09:56.311Z,99504
2017-05-11T19:12:25.789Z,99508
2017-05-11T19:14:55.487Z,99512
2017-05-11T19:17:25.657Z,99511
2017-05-11T19:19:54.648Z,99513
2017-05-11T19:22:23.697Z,99519
2017-05-11T19:24:53.945Z,99514
2017-05-11T19:27:22.946Z,99525
2017-05-11T19:29:51.937Z,99526
2017-05-11T19:32:21.266Z,99530
2017-05-11T19:34:50.250Z,99532
2017-05-11T19:37:19.319Z,99527
2017-05-11T19:39:48.672Z,99532
2017-05-11T19:42:17.698Z,99530
2017-05-11T19:44:46.774Z,99533
2017-05-11T19:47:16.207Z,99529
2017-05-11T19:49:45.268Z,99534
2017-05-11T19:52:14.287Z,99533
2017-05-11T19:54:43.319Z,99526
2017-05-11T19:57:12.332Z,99535
2017-05-11T19:59:42.417Z,99534
2017-05-11T20:02:11.441Z,99525
2017-05-11T20:04:40.433Z,99530
2017-05-11T20:07:09.732Z,99530
2017-05-11T20:09:38.872Z,99525
2017-05-11T20:12:07.894Z,99532
2017-05-11T20:14:37.336Z,99531
2017-05-11T20:17:07.124Z,99526
2017-05-11T20:19:36.176Z,99535
2017-05-11T20:22:05.504Z,99532
2017-05-11T20:24:34.471Z,99523
2017-05-11T20:27:03.531Z,99528
2017-05-11T20:29:33.656Z,99532
2017-05-11T20:32:03.550Z,99533
2017-05-11T20:34:32.621Z,99530
2017-05-11T20:37:01.958Z,99528
2017-05-11T20:39:31.679Z,99531
2017-05-11T20:42:00.648Z,99528
2017-05-11T20:44:29.975Z,99531
2017-05-11T20:46:59.183Z,99524
2017-05-11T20:49:28.244Z,99532
2017-05-11T20:51:58.252Z,99531
2017-05-11T20:54:27.996Z,99524
2017-05-11T20:56:57.059Z,99538
2017-05-11T20:59:27.204Z,99532
2017-05-11T21:01:56.337Z,99535
2017-05-11T21:04:25.325Z,99529
2017-05-11T21:06:54.666Z,99535
2017-05-11T21:09:23.689Z,99528
2017-05-11T21:11:52.687Z,99529
2017-05-11T21:14:22.095Z,99534
2017-05-11T21:16:51.052Z,99536
2017-05-11T21:19:20.985Z,99531
2017-05-11T21:21:50.309Z,99534
2017-05-11T21:24:19.366Z,99525
2017-05-11T21:26:48.338Z,99529
2017-05-11T21:29:18.373Z,99523
2017-05-11T21:31:48.095Z,99522
2017-05-11T21:34:17.256Z,99527
2017-05-11T21:36:46.586Z,99523
2017-05-11T21:39:15.588Z,99533
2017-05-11T21:41:44.573Z,99520
2017-05-11T21:44:13.861Z,99525
2017-05-11T21:46:43.570Z,99524
2017-05-11T21:49:13.654Z,99521
2017-05-11T21:51:42.631Z,99524
2017-05-11T21:54:11.682Z,99524
2017-05-11T21:56:40.669Z,99526
2017-05-11T21:59:10.366Z,99532
2017-05-11T22:01:40.411Z,99527
2017-05-11T22:04:09.404Z,99538
2017-05-11T22:06:38.376Z,99535
2017-05-11T22:09:08.362Z,99528
2017-05-11T22:11:37.309Z,99540
2017-05-11T22:14:06.263Z,99533
2017-05-11T22:16:35.500Z,99538
2017-05-11T22:19:04.482Z,99533
2017-05-11T22:21:33.435Z,99532
2017-05-11T22:24:02.750Z,99539
2017-05-11T22:26:32.516Z,99538
2017-05-11T22:29:01.463Z,99537
2017-05-11T22:31:30.462Z,99532
2017-05-11T22:33:59.595Z,99529
2017-05-11T22:36:28.825Z,99532
2017-05-11T22:38:57.784Z,99529
2017-05-11T22:41:26.735Z,99535
2017-05-11T22:43:56.008Z,99547
2017-05-11T22:46:25.785Z,99548
2017-05-11T22:48:54.791Z,99544
2017-05-11T22:51:24.109Z,99548
2017-05-11T22:53:53.087Z,99544
2017-05-11T22:56:22.067Z,99539
2017-05-11T22:58:51.400Z,99542
2017-05-11T23:01:21.101Z,99545
2017-05-11T23:03:50.818Z,99547
2017-05-11T23:06:20.872Z,99547
2017-05-11T23:08:49.825Z,99542
2017-05-11T23:11:18.875Z,99540
2017-05-11T23:13:48.212Z,99544
2017-05-11T23:16:17.911Z,99549
2017-05-11T23:18:46.855Z,99546
2017-05-11T23:21:16.259Z,99553
2017-05-11T23:23:45.217Z,99548
2017-05-11T23:26:14.912Z,99552
2017-05-11T23:28:44.186Z,99554
2017-05-11T23:31:13.179Z,99548
2017-05-11T23:33:42.117Z,99548
2017-05-11T23:36:11.490Z,99548
2017-05-11T23:38:40.449Z,99546
2017-05-11T23:41:09.409Z,99546
2017-05-11T23:43:38.665Z,99541
2017-05-11T23:46:07.610Z,99537
2017-05-11T23:48:36.534Z,99529
2017-05-11T23:51:05.794Z,99539
2017-05-11T23:53:34.719Z,99526
2017-05-11T23:56:03.645Z,99533
2017-05-11T23:58:33.742Z,99524
